FN60fps’s ATC Tracking Thread - [CLOSED] @ N/A (Passed the practical)

No worries, your health is more important than an IF session!

Tag me in future sessions :)

1 Like

Hey everyone, I am open at SKBO 🇨🇴 airport til 2:30 PM EST! Hopefully @Alexbg29 and @Guitar can join!

Utc time of starting?

1 Like

Now it’s open!

Give me 10minutes

1 Like

Unfortunately, I had to close, I going out for dinner with my family! Hopefully you can catch another future session!

no problem :)

1 Like

MMMX is now Open!

METAR: MMMX 150054Z 07007KT 12SM SKC 19/M16 A3023 NOSIG, LANDING AND DEPARTING RUNWAYS, 05L AND 05R

I’ll come in! In 15 minutes as much

1 Like

Coming now for pattern work

1 Like

Srry I had to go

1 Like

What beautiful views while making patterns in MMMX.

1 Like

I agree with you! @IzumiSagiri

1 Like

The second best place in the world, after my hometown ;)


@FN60fps, we need more aircraft, so you can get more active. Well done today! Tho, my T/O request was early, sorry about that

1 Like

Will you be open in 20 more minutes?

1 Like

Yes, even If I weren’t, I would wait for 20 minutes more!

I’ll be there in 20

1 Like

Thanks, everyone for joining my sessions!

Any airport recommendations for the next session?

1 Like

VNLK😈😈 Just kidding! I don’t know, one with nice likes would be nice

1 Like